Nicole Leigh Reinauer — WCZ5696 — position and weather

sailwx.info

Track history (hours):
 
Tides and Currents Weather Stations Pressure Air Temp Water Temp Dewpoint Dewpoint Depression Visibility Wind Speed Wind Dir Waves Ship Positions

Nicole Leigh Reinauer

Owner: H A REINAUER INC, STATEN ISLAND, NY. More information available from US FCC via Universal Licensing System and Coast Guard Vessel Documentation Center.

Last reported at 2017-Nov-19 11:59 UTC. Time now 2017-Nov-19 12:18 UTC.
Position N 40°35' W 074°12'.

Length 48 m; draft 6.7 m.

Type: Pilot. MMSI: 366774330.

Date/timePositionNaut miles runAvg speedWind from/ knotsBaromVisibWave heightAir tempDewpointWater temp
2017-Nov-19 11:59N 40°35' W 074°12'0 0.0
2017-Nov-19 11:29N 40°35' W 074°12'0 0.0
2017-Nov-19 10:50N 40°35' W 074°12'0 0.0
2017-Nov-19 10:23N 40°35' W 074°12'0 0.0
2017-Nov-19 09:53N 40°35' W 074°12'0 0.0
2017-Nov-19 09:26N 40°35' W 074°12'0 0.0
2017-Nov-19 08:59N 40°35' W 074°12'0 0.0
2017-Nov-19 08:23N 40°35' W 074°12'0 0.0
2017-Nov-19 07:59N 40°35' W 074°12'0 0.0
2017-Nov-19 07:29N 40°35' W 074°12'0 0.0
2017-Nov-19 06:59N 40°35' W 074°12'0 0.0
2017-Nov-19 06:29N 40°35' W 074°12'0 0.0
2017-Nov-19 05:59N 40°35' W 074°12'0 0.0
2017-Nov-19 05:29N 40°35' W 074°12'0 0.0
2017-Nov-19 04:59N 40°35' W 074°12'0 0.0
2017-Nov-19 04:29N 40°35' W 074°12'0 0.0
2017-Nov-19 03:59N 40°35' W 074°12'0 0.0
2017-Nov-19 03:26N 40°35' W 074°12'0 0.0
2017-Nov-19 02:59N 40°35' W 074°12'0 0.0
2017-Nov-19 02:29N 40°35' W 074°12'0 0.0
2017-Nov-19 01:59N 40°35' W 074°12'0 0.0
2017-Nov-19 01:26N 40°35' W 074°12'0 0.0
2017-Nov-19 01:00N 40°35' W 074°12'0 0.9
2017-Nov-19 00:30N 40°36' W 074°12'3 6.1
2017-Nov-19 00:00N 40°39' W 074°11'5 9.4
2017-Nov-18 23:30N 40°39' W 074°05'5 9.5
2017-Nov-18 23:00N 40°42' W 073°60'3 6.9
2017-Nov-18 22:30N 40°45' W 073°58'3 5.9
2017-Nov-18 22:00N 40°47' W 073°55'2 4.5
2017-Nov-18 21:30N 40°48' W 073°52'4 7.2
2017-Nov-18 21:00N 40°48' W 073°47'4 8.2
2017-Nov-18 20:30N 40°52' W 073°45'5 8.7
2017-Nov-18 19:57N 40°55' W 073°40'4 8.9
2017-Nov-18 19:27N 40°57' W 073°35'4010.4
2017-Nov-18 15:37N 41°06' W 072°44'111.5
2017-Nov-18 15:30N 41°07' W 072°42'611.7
2017-Nov-18 15:00N 41°08' W 072°35'612.6
2017-Nov-18 14:30N 41°10' W 072°27'713.0
2017-Nov-18 14:00N 41°12' W 072°18'713.3
2017-Nov-18 13:30N 41°14' W 072°10'92 8.8
2017-Nov-18 03:02N 42°09' W 070°30'111.9
2017-Nov-18 02:55N 42°10' W 070°31'511.9
2017-Nov-18 02:31N 42°13' W 070°35'611.8
2017-Nov-18 02:00N 42°18' W 070°41'611.6
2017-Nov-18 01:31N 42°21' W 070°47'510.4
2017-Nov-18 01:01N 42°22' W 070°54'5 9.4
2017-Nov-18 00:30N 42°20' W 070°60'4 7.6
2017-Nov-18 00:01N 42°23' W 071°02'1 2.1
2017-Nov-17 23:30N 42°24' W 071°01'0 0.0
2017-Nov-17 23:00N 42°24' W 071°01'0 0.0
2017-Nov-17 22:30N 42°24' W 071°01'0 0.0
2017-Nov-17 22:00N 42°24' W 071°01'0 0.0
2017-Nov-17 21:30N 42°24' W 071°01'0 0.0
2017-Nov-17 21:00N 42°24' W 071°01'0 0.0
2017-Nov-17 20:30N 42°24' W 071°01'0 0.0
2017-Nov-17 20:00N 42°24' W 071°01'0 0.0
2017-Nov-17 19:30N 42°24' W 071°01'0 0.0
2017-Nov-17 18:57N 42°24' W 071°01'0 0.5
2017-Nov-17 18:24N 42°24' W 071°01'0 0.1
2017-Nov-17 17:48N 42°24' W 071°01'0 0.0
2017-Nov-17 17:27N 42°24' W 071°01'0 0.0
2017-Nov-17 16:54N 42°24' W 071°01'0 0.0
2017-Nov-17 16:30N 42°24' W 071°01'0 0.0
2017-Nov-17 15:24N 42°24' W 071°01'0 0.0
2017-Nov-17 13:57N 42°24' W 071°01'0 0.0
2017-Nov-17 13:24N 42°24' W 071°01'0 0.0
2017-Nov-17 12:58N 42°24' W 071°01'0 0.0
2017-Nov-17 11:52N 42°24' W 071°01'0 0.0
2017-Nov-17 11:25N 42°24' W 071°01'0 0.0
2017-Nov-17 10:55N 42°24' W 071°01'0 0.0
2017-Nov-17 10:25N 42°24' W 071°01'0 0.0
2017-Nov-17 09:58N 42°24' W 071°01'0 0.0
2017-Nov-17 09:28N 42°24' W 071°01'0 0.0
2017-Nov-17 08:55N 42°24' W 071°01'0 0.0
2017-Nov-17 08:28N 42°24' W 071°01'0 0.0
2017-Nov-17 07:55N 42°24' W 071°01'0 0.0
2017-Nov-17 07:28N 42°24' W 071°01'0 0.0
2017-Nov-17 06:58N 42°24' W 071°01'0 0.0
2017-Nov-17 06:25N 42°24' W 071°01'0 0.0
2017-Nov-17 05:58N 42°24' W 071°01'0 0.0
2017-Nov-17 05:19N 42°24' W 071°01'0 0.0
2017-Nov-17 04:58N 42°24' W 071°01'0 0.0
2017-Nov-17 04:28N 42°24' W 071°01'0 0.0
2017-Nov-17 03:58N 42°24' W 071°01'0 0.0
2017-Nov-17 03:28N 42°24' W 071°01'0 0.0
2017-Nov-17 02:55N 42°24' W 071°01'1 2.6
2017-Nov-17 02:31N 42°23' W 071°02'1 1.1
2017-Nov-17 01:58N 42°23' W 071°03'0 0.0
2017-Nov-17 01:25N 42°23' W 071°03'0 0.0
2017-Nov-17 00:58N 42°23' W 071°03'0 0.0
2017-Nov-17 00:25N 42°23' W 071°03'0 0.0
2017-Nov-16 23:58N 42°23' W 071°03'0 0.0
2017-Nov-16 23:22N 42°23' W 071°03'1 1.4
2017-Nov-16 23:00N 42°23' W 071°02'1 1.8
2017-Nov-16 22:22N 42°24' W 071°01'0 0.0
2017-Nov-16 21:56N 42°24' W 071°01'0 0.0
2017-Nov-16 21:20N 42°24' W 071°01'0 0.0
2017-Nov-16 20:15N 42°24' W 071°01'0 0.0
2017-Nov-16 19:54N 42°24' W 071°01'0 0.0
2017-Nov-16 18:32N 42°24' W 071°01'0 0.0
2017-Nov-16 18:27N 42°24' W 071°01'0 0.0
2017-Nov-16 18:00N 42°24' W 071°01'0 0.0
2017-Nov-16 17:30N 42°24' W 071°01'0 0.3
2017-Nov-16 17:00N 42°24' W 071°01'1 2.7
2017-Nov-16 16:30N 42°23' W 071°03'1 2.1
2017-Nov-16 16:00N 42°22' W 071°03'2 3.4
2017-Nov-16 15:30N 42°21' W 071°01'3 6.6
2017-Nov-16 15:00N 42°20' W 070°57'5 9.4
2017-Nov-16 14:30N 42°23' W 070°52'510.0
2017-Nov-16 14:00N 42°20' W 070°46'5 9.9
2017-Nov-16 13:30N 42°17' W 070°41'5 9.9
2017-Nov-16 13:00N 42°14' W 070°36'5 9.8
2017-Nov-16 12:30N 42°10' W 070°31'174 9.7
2017-Nov-15 18:29N 40°29' W 073°39'5 9.4
2017-Nov-15 17:56N 40°28' W 073°46'4 9.2
2017-Nov-15 17:30N 40°28' W 073°51'4 8.1
2017-Nov-15 17:00N 40°30' W 073°56'4 9.0
2017-Nov-15 16:30N 40°32' W 074°01'511.0
2017-Nov-15 16:00N 40°37' W 074°03'2 4.5
2017-Nov-15 15:30N 40°40' W 074°03'2 3.2
2017-Nov-15 15:00N 40°39' W 074°05'510.1
2017-Nov-15 14:30N 40°39' W 074°11'3 6.4
2017-Nov-15 14:00N 40°35' W 074°12'0 0.0
2017-Nov-15 13:30N 40°35' W 074°12'0 0.0
2017-Nov-15 12:59N 40°35' W 074°12'0 0.0
2017-Nov-15 12:30N 40°35' W 074°12'0 0.0
2017-Nov-15 12:00N 40°35' W 074°12'0 0.0
2017-Nov-15 11:30N 40°35' W 074°12'0 0.0
2017-Nov-15 11:00N 40°35' W 074°12'0 0.0
2017-Nov-15 10:30N 40°35' W 074°12'0 0.0
2017-Nov-15 10:00N 40°35' W 074°12'0 0.0
2017-Nov-15 09:30N 40°35' W 074°12'0 0.0
2017-Nov-15 09:00N 40°35' W 074°12'0 0.0
2017-Nov-15 08:30N 40°35' W 074°12'0 0.0
2017-Nov-15 08:00N 40°35' W 074°12'0 0.0
2017-Nov-15 07:30N 40°35' W 074°12'0 0.0
2017-Nov-15 07:00N 40°35' W 074°12'0 0.0
2017-Nov-15 06:30N 40°35' W 074°12'0 0.0
2017-Nov-15 05:57N 40°35' W 074°12'0 0.0
2017-Nov-15 05:30N 40°35' W 074°12'0 0.0
2017-Nov-15 05:00N 40°35' W 074°12'0 0.0
2017-Nov-15 04:30N 40°35' W 074°12'0 0.0
2017-Nov-15 04:00N 40°35' W 074°12'0 0.0
2017-Nov-15 03:30N 40°35' W 074°12'0 0.0
2017-Nov-15 03:00N 40°35' W 074°12'0 0.0
2017-Nov-15 02:30N 40°35' W 074°12'0 0.0
2017-Nov-15 02:00N 40°35' W 074°12'0 0.0
2017-Nov-15 01:30N 40°35' W 074°12'0 0.0
2017-Nov-15 01:00N 40°35' W 074°12'0 0.0
2017-Nov-15 00:30N 40°35' W 074°12'0 0.0
2017-Nov-15 00:00N 40°35' W 074°12'0 0.0
2017-Nov-14 23:30N 40°35' W 074°12'0 0.0
2017-Nov-14 23:00N 40°35' W 074°12'0 0.0
2017-Nov-14 22:30N 40°35' W 074°12'0 0.0
2017-Nov-14 22:00N 40°35' W 074°12'0 0.0
2017-Nov-14 21:30N 40°35' W 074°12'0 0.0
2017-Nov-14 20:51N 40°35' W 074°12'0 0.0
2017-Nov-14 20:30N 40°35' W 074°12'0 0.0
2017-Nov-14 20:00N 40°35' W 074°12'0 0.0
2017-Nov-14 19:30N 40°35' W 074°12'0 0.0
2017-Nov-14 18:57N 40°35' W 074°12'0 0.0
2017-Nov-14 18:30N 40°35' W 074°12'0 0.0
2017-Nov-14 17:57N 40°35' W 074°12'0 0.0
2017-Nov-14 17:30N 40°35' W 074°12'0 0.0
2017-Nov-14 17:00N 40°35' W 074°12'0 0.0
2017-Nov-14 16:27N 40°35' W 074°12'0 0.0
2017-Nov-14 16:00N 40°35' W 074°12'0 0.0
2017-Nov-14 15:27N 40°35' W 074°12'0 0.0
2017-Nov-14 15:00N 40°35' W 074°12'0 0.0
2017-Nov-14 14:24N 40°35' W 074°12'0 0.0
2017-Nov-14 13:57N 40°35' W 074°12'0 0.0
2017-Nov-14 13:30N 40°35' W 074°12'0 0.0
2017-Nov-14 13:00N 40°35' W 074°12'0 0.0
2017-Nov-14 12:30N 40°35' W 074°12'0 0.0
2017-Nov-14 12:00N 40°35' W 074°12'0 0.0
2017-Nov-14 11:30N 40°35' W 074°12'0 0.0
2017-Nov-14 11:00N 40°35' W 074°12'0 0.0
2017-Nov-14 10:21N 40°35' W 074°12'0 0.0
2017-Nov-14 10:00N 40°35' W 074°12'0 0.0
2017-Nov-14 09:30N 40°35' W 074°12'0 0.0
2017-Nov-14 09:00N 40°35' W 074°12'0 0.0
2017-Nov-14 08:30N 40°35' W 074°12'0 0.0
2017-Nov-14 08:00N 40°35' W 074°12'0 0.0
2017-Nov-14 07:30N 40°35' W 074°12'0 0.0
2017-Nov-14 07:00N 40°35' W 074°12'1 1.3
2017-Nov-14 06:30N 40°36' W 074°12'2 4.1
2017-Nov-14 06:01N 40°38' W 074°12'4 7.9
2017-Nov-14 05:30N 40°39' W 074°07'4 8.2
2017-Nov-14 05:01N 40°41' W 074°02'713.3
2017-Nov-14 04:30N 40°47' W 073°59'713.7
2017-Nov-14 04:00N 40°54' W 073°55'3 6.3
2017-Nov-14 03:29N 40°57' W 073°55'0 0.1
2017-Nov-14 03:00N 40°57' W 073°55'0 0.0
2017-Nov-14 02:24N 40°57' W 073°55'0 0.0
2017-Nov-14 01:48N 40°57' W 073°55'0 0.4
2017-Nov-14 01:27N 40°57' W 073°54'0 0.3
2017-Nov-14 00:54N 40°57' W 073°55'0 0.1
2017-Nov-14 00:30N 40°57' W 073°55'0 0.1
2017-Nov-13 23:48N 40°57' W 073°55'0 0.0
2017-Nov-13 23:30N 40°57' W 073°55'0 0.0
2017-Nov-13 22:42N 40°57' W 073°55'0 0.1
2017-Nov-13 22:27N 40°57' W 073°54'0 0.0
2017-Nov-13 22:00N 40°57' W 073°55'74 3.7
2017-Nov-13 02:00N 41°11' W 072°19'5 9.7
2017-Nov-13 01:30N 41°12' W 072°13'95 9.0
2017-Nov-12 14:58N 42°09' W 070°31'511.1
2017-Nov-12 14:30N 42°14' W 070°35'611.4
2017-Nov-12 14:00N 42°18' W 070°41'611.6
2017-Nov-12 13:30N 42°21' W 070°47'510.3
2017-Nov-12 13:00N 42°23' W 070°54'510.3
2017-Nov-12 12:30N 42°20' W 071°00'3 7.0
2017-Nov-12 12:00N 42°23' W 071°02'1 2.6
2017-Nov-12 11:30N 42°24' W 071°01'0 0.1
2017-Nov-12 11:00N 42°24' W 071°01'0 0.0
2017-Nov-12 10:15N 42°24' W 071°01'0 0.0
2017-Nov-12 10:00N 42°24' W 071°01'0 0.0
2017-Nov-12 09:27N 42°24' W 071°01'0 0.0
2017-Nov-12 09:00N 42°24' W 071°01'0 0.0
2017-Nov-12 08:24N 42°24' W 071°01'0 0.0
2017-Nov-12 08:00N 42°24' W 071°01'0 0.0
2017-Nov-12 07:30N 42°24' W 071°01'0 0.0
2017-Nov-12 06:57N 42°24' W 071°01'0 0.0
2017-Nov-12 06:30N 42°24' W 071°01'0 0.0
2017-Nov-12 05:57N 42°24' W 071°01'0 0.0
2017-Nov-12 05:18N 42°24' W 071°01'0 0.0
2017-Nov-12 04:57N 42°24' W 071°01'0 0.0
2017-Nov-12 04:30N 42°24' W 071°01'0 0.0
2017-Nov-12 03:57N 42°24' W 071°01'0 0.0
2017-Nov-12 03:27N 42°24' W 071°01'0 0.0
2017-Nov-12 03:00N 42°24' W 071°01'0 0.0
2017-Nov-12 02:30N 42°24' W 071°01'0 0.0
2017-Nov-12 01:57N 42°24' W 071°01'0 0.0
2017-Nov-12 01:30N 42°24' W 071°01'0 0.0
2017-Nov-12 00:54N 42°24' W 071°01'0 0.0
2017-Nov-12 00:30N 42°24' W 071°01'0 0.0
2017-Nov-12 00:00N 42°24' W 071°01'0 0.0
2017-Nov-11 23:27N 42°24' W 071°01'0 0.0
2017-Nov-11 23:00N 42°24' W 071°01'0 0.6
2017-Nov-11 22:30N 42°24' W 071°01'2 4.4
2017-Nov-11 22:00N 42°23' W 071°04'0 0.6
2017-Nov-11 21:30N 42°23' W 071°04'1 0.4
2017-Nov-11 19:14N 42°23' W 071°03'0 0.0
2017-Nov-11 17:26N 42°23' W 071°03'1 3.3
2017-Nov-11 17:00N 42°24' W 071°01'0 0.2
2017-Nov-11 15:43N 42°24' W 071°01'0 0.0
2017-Nov-11 15:19N 42°24' W 071°01'0 0.0
2017-Nov-11 14:58N 42°24' W 071°01'0 0.0
2017-Nov-11 13:13N 42°24' W 071°01'0 0.0
2017-Nov-11 12:55N 42°24' W 071°01'0 0.0
2017-Nov-11 12:25N 42°24' W 071°01'0 0.0
2017-Nov-11 11:58N 42°24' W 071°01'0 0.0
2017-Nov-11 10:55N 42°24' W 071°01'0 0.0
2017-Nov-11 10:16N 42°24' W 071°01'0 0.0
2017-Nov-11 09:46N 42°24' W 071°01'0 0.0
2017-Nov-11 09:28N 42°24' W 071°01'0 0.0
2017-Nov-11 08:55N 42°24' W 071°01'0 0.0
2017-Nov-11 08:30N 42°24' W 071°01'0 0.4
2017-Nov-11 08:00N 42°24' W 071°01'2 3.3
2017-Nov-11 07:30N 42°23' W 071°03'4 7.7
2017-Nov-11 07:00N 42°20' W 070°59'611.3
2017-Nov-11 06:30N 42°23' W 070°53'510.5
2017-Nov-11 06:00N 42°21' W 070°46'510.9
2017-Nov-11 05:30N 42°17' W 070°40'510.5
2017-Nov-11 05:00N 42°14' W 070°35'510.2
2017-Nov-11 04:30N 42°10' W 070°31'92 6.3
2017-Nov-10 13:51N 41°14' W 072°08'513.0
2017-Nov-10 13:30N 41°13' W 072°14'713.7
2017-Nov-10 13:00N 41°11' W 072°23'612.9
2017-Nov-10 12:30N 41°09' W 072°31'612.4
2017-Nov-10 12:00N 41°07' W 072°39'612.3
2017-Nov-10 11:30N 41°06' W 072°47'4511.4
2017-Nov-10 07:32N 40°52' W 073°44'011.5
2017-Nov-10 07:30N 40°52' W 073°45'5 9.4
2017-Nov-10 06:59N 40°48' W 073°49'510.7
2017-Nov-10 06:29N 40°47' W 073°56'511.0
2017-Nov-10 06:00N 40°42' W 073°60'5 9.7
2017-Nov-10 05:31N 40°38' W 074°03'0 1.0
2017-Nov-10 05:01N 40°39' W 074°03'3 5.6
2017-Nov-10 04:30N 40°39' W 074°07'2 4.3
2017-Nov-10 04:00N 40°39' W 074°10'3 5.2
2017-Nov-10 03:30N 40°37' W 074°12'2 3.6
2017-Nov-10 03:00N 40°35' W 074°13'0 0.0
2017-Nov-10 02:29N 40°35' W 074°13'0 0.0
2017-Nov-10 02:00N 40°35' W 074°13'0 0.0
2017-Nov-10 01:30N 40°35' W 074°13'0 0.0
2017-Nov-10 00:58N 40°35' W 074°13'0 0.0
2017-Nov-10 00:25N 40°35' W 074°13'0 0.0
2017-Nov-09 23:58N 40°35' W 074°13'0 0.0
2017-Nov-09 23:13N 40°35' W 074°13'0 0.0
2017-Nov-09 22:58N 40°35' W 074°13'0 0.0
2017-Nov-09 22:19N 40°35' W 074°13'0 0.0
2017-Nov-09 21:43N 40°35' W 074°13'0 0.0
2017-Nov-09 21:25N 40°35' W 074°13'0 0.0
2017-Nov-09 20:49N 40°35' W 074°13'0 0.0
2017-Nov-09 20:28N 40°35' W 074°13'0 0.0
2017-Nov-09 19:58N 40°35' W 074°13'0 0.0
2017-Nov-09 19:28N 40°35' W 074°13'0 0.0
2017-Nov-09 17:07N 40°35' W 074°13'0 0.0
2017-Nov-09 16:55N 40°35' W 074°13'0 0.0
2017-Nov-09 15:31N 40°35' W 074°13'0 0.0
2017-Nov-09 15:25N 40°35' W 074°13'0 0.0
2017-Nov-09 14:52N 40°35' W 074°13'0 0.0
2017-Nov-09 14:28N 40°35' W 074°13'0 0.0
2017-Nov-09 13:55N 40°35' W 074°13'0 0.0
2017-Nov-09 13:28N 40°35' W 074°13'0 0.0
2017-Nov-09 12:49N 40°35' W 074°13'  
Track history (hours):
 
Tides and Currents Weather Stations Pressure Air Temp Water Temp Dewpoint Dewpoint Depression Visibility Wind Speed Wind Dir Waves Ship Positions

Nicole Leigh Reinauer

Owner: H A REINAUER INC, STATEN ISLAND, NY. More information available from US FCC via Universal Licensing System and Coast Guard Vessel Documentation Center.

Last reported at 2017-Nov-19 11:59 UTC. Time now 2017-Nov-19 12:18 UTC.
Position N 40°35' W 074°12'.

Length 48 m; draft 6.7 m.

Type: Pilot. MMSI: 366774330.

Date/timePositionNaut miles runAvg speedWind from/ knotsBaromVisibWave heightAir tempDewpointWater temp
2017-Nov-19 11:59N 40°35' W 074°12'0 0.0
2017-Nov-19 11:29N 40°35' W 074°12'0 0.0
2017-Nov-19 10:50N 40°35' W 074°12'0 0.0
2017-Nov-19 10:23N 40°35' W 074°12'0 0.0
2017-Nov-19 09:53N 40°35' W 074°12'0 0.0
2017-Nov-19 09:26N 40°35' W 074°12'0 0.0
2017-Nov-19 08:59N 40°35' W 074°12'0 0.0
2017-Nov-19 08:23N 40°35' W 074°12'0 0.0
2017-Nov-19 07:59N 40°35' W 074°12'0 0.0
2017-Nov-19 07:29N 40°35' W 074°12'0 0.0
2017-Nov-19 06:59N 40°35' W 074°12'0 0.0
2017-Nov-19 06:29N 40°35' W 074°12'0 0.0
2017-Nov-19 05:59N 40°35' W 074°12'0 0.0
2017-Nov-19 05:29N 40°35' W 074°12'0 0.0
2017-Nov-19 04:59N 40°35' W 074°12'0 0.0
2017-Nov-19 04:29N 40°35' W 074°12'0 0.0
2017-Nov-19 03:59N 40°35' W 074°12'0 0.0
2017-Nov-19 03:26N 40°35' W 074°12'0 0.0
2017-Nov-19 02:59N 40°35' W 074°12'0 0.0
2017-Nov-19 02:29N 40°35' W 074°12'0 0.0
2017-Nov-19 01:59N 40°35' W 074°12'0 0.0
2017-Nov-19 01:26N 40°35' W 074°12'0 0.0
2017-Nov-19 01:00N 40°35' W 074°12'0 0.9
2017-Nov-19 00:30N 40°36' W 074°12'3 6.1
2017-Nov-19 00:00N 40°39' W 074°11'5 9.4
2017-Nov-18 23:30N 40°39' W 074°05'5 9.5
2017-Nov-18 23:00N 40°42' W 073°60'3 6.9
2017-Nov-18 22:30N 40°45' W 073°58'3 5.9
2017-Nov-18 22:00N 40°47' W 073°55'2 4.5
2017-Nov-18 21:30N 40°48' W 073°52'4 7.2
2017-Nov-18 21:00N 40°48' W 073°47'4 8.2
2017-Nov-18 20:30N 40°52' W 073°45'5 8.7
2017-Nov-18 19:57N 40°55' W 073°40'4 8.9
2017-Nov-18 19:27N 40°57' W 073°35'4010.4
2017-Nov-18 15:37N 41°06' W 072°44'111.5
2017-Nov-18 15:30N 41°07' W 072°42'611.7
2017-Nov-18 15:00N 41°08' W 072°35'612.6
2017-Nov-18 14:30N 41°10' W 072°27'713.0
2017-Nov-18 14:00N 41°12' W 072°18'713.3
2017-Nov-18 13:30N 41°14' W 072°10'92 8.8
2017-Nov-18 03:02N 42°09' W 070°30'111.9
2017-Nov-18 02:55N 42°10' W 070°31'511.9
2017-Nov-18 02:31N 42°13' W 070°35'611.8
2017-Nov-18 02:00N 42°18' W 070°41'611.6
2017-Nov-18 01:31N 42°21' W 070°47'510.4
2017-Nov-18 01:01N 42°22' W 070°54'5 9.4
2017-Nov-18 00:30N 42°20' W 070°60'4 7.6
2017-Nov-18 00:01N 42°23' W 071°02'1 2.1
2017-Nov-17 23:30N 42°24' W 071°01'0 0.0
2017-Nov-17 23:00N 42°24' W 071°01'0 0.0
2017-Nov-17 22:30N 42°24' W 071°01'0 0.0
2017-Nov-17 22:00N 42°24' W 071°01'0 0.0
2017-Nov-17 21:30N 42°24' W 071°01'0 0.0
2017-Nov-17 21:00N 42°24' W 071°01'0 0.0
2017-Nov-17 20:30N 42°24' W 071°01'0 0.0
2017-Nov-17 20:00N 42°24' W 071°01'0 0.0
2017-Nov-17 19:30N 42°24' W 071°01'0 0.0
2017-Nov-17 18:57N 42°24' W 071°01'0 0.5
2017-Nov-17 18:24N 42°24' W 071°01'0 0.1
2017-Nov-17 17:48N 42°24' W 071°01'0 0.0
2017-Nov-17 17:27N 42°24' W 071°01'0 0.0
2017-Nov-17 16:54N 42°24' W 071°01'0 0.0
2017-Nov-17 16:30N 42°24' W 071°01'0 0.0
2017-Nov-17 15:24N 42°24' W 071°01'0 0.0
2017-Nov-17 13:57N 42°24' W 071°01'0 0.0
2017-Nov-17 13:24N 42°24' W 071°01'0 0.0
2017-Nov-17 12:58N 42°24' W 071°01'0 0.0
2017-Nov-17 11:52N 42°24' W 071°01'0 0.0
2017-Nov-17 11:25N 42°24' W 071°01'0 0.0
2017-Nov-17 10:55N 42°24' W 071°01'0 0.0
2017-Nov-17 10:25N 42°24' W 071°01'0 0.0
2017-Nov-17 09:58N 42°24' W 071°01'0 0.0
2017-Nov-17 09:28N 42°24' W 071°01'0 0.0
2017-Nov-17 08:55N 42°24' W 071°01'0 0.0
2017-Nov-17 08:28N 42°24' W 071°01'0 0.0
2017-Nov-17 07:55N 42°24' W 071°01'0 0.0
2017-Nov-17 07:28N 42°24' W 071°01'0 0.0
2017-Nov-17 06:58N 42°24' W 071°01'0 0.0
2017-Nov-17 06:25N 42°24' W 071°01'0 0.0
2017-Nov-17 05:58N 42°24' W 071°01'0 0.0
2017-Nov-17 05:19N 42°24' W 071°01'0 0.0
2017-Nov-17 04:58N 42°24' W 071°01'0 0.0
2017-Nov-17 04:28N 42°24' W 071°01'0 0.0
2017-Nov-17 03:58N 42°24' W 071°01'0 0.0
2017-Nov-17 03:28N 42°24' W 071°01'0 0.0
2017-Nov-17 02:55N 42°24' W 071°01'1 2.6
2017-Nov-17 02:31N 42°23' W 071°02'1 1.1
2017-Nov-17 01:58N 42°23' W 071°03'0 0.0
2017-Nov-17 01:25N 42°23' W 071°03'0 0.0
2017-Nov-17 00:58N 42°23' W 071°03'0 0.0
2017-Nov-17 00:25N 42°23' W 071°03'0 0.0
2017-Nov-16 23:58N 42°23' W 071°03'0 0.0
2017-Nov-16 23:22N 42°23' W 071°03'1 1.4
2017-Nov-16 23:00N 42°23' W 071°02'1 1.8
2017-Nov-16 22:22N 42°24' W 071°01'0 0.0
2017-Nov-16 21:56N 42°24' W 071°01'0 0.0
2017-Nov-16 21:20N 42°24' W 071°01'0 0.0
2017-Nov-16 20:15N 42°24' W 071°01'0 0.0
2017-Nov-16 19:54N 42°24' W 071°01'0 0.0
2017-Nov-16 18:32N 42°24' W 071°01'0 0.0
2017-Nov-16 18:27N 42°24' W 071°01'0 0.0
2017-Nov-16 18:00N 42°24' W 071°01'0 0.0
2017-Nov-16 17:30N 42°24' W 071°01'0 0.3
2017-Nov-16 17:00N 42°24' W 071°01'1 2.7
2017-Nov-16 16:30N 42°23' W 071°03'1 2.1
2017-Nov-16 16:00N 42°22' W 071°03'2 3.4
2017-Nov-16 15:30N 42°21' W 071°01'3 6.6
2017-Nov-16 15:00N 42°20' W 070°57'5 9.4
2017-Nov-16 14:30N 42°23' W 070°52'510.0
2017-Nov-16 14:00N 42°20' W 070°46'5 9.9
2017-Nov-16 13:30N 42°17' W 070°41'5 9.9
2017-Nov-16 13:00N 42°14' W 070°36'5 9.8
2017-Nov-16 12:30N 42°10' W 070°31'174 9.7
2017-Nov-15 18:29N 40°29' W 073°39'5 9.4
2017-Nov-15 17:56N 40°28' W 073°46'4 9.2
2017-Nov-15 17:30N 40°28' W 073°51'4 8.1
2017-Nov-15 17:00N 40°30' W 073°56'4 9.0
2017-Nov-15 16:30N 40°32' W 074°01'511.0
2017-Nov-15 16:00N 40°37' W 074°03'2 4.5
2017-Nov-15 15:30N 40°40' W 074°03'2 3.2
2017-Nov-15 15:00N 40°39' W 074°05'510.1
2017-Nov-15 14:30N 40°39' W 074°11'3 6.4
2017-Nov-15 14:00N 40°35' W 074°12'0 0.0
2017-Nov-15 13:30N 40°35' W 074°12'0 0.0
2017-Nov-15 12:59N 40°35' W 074°12'0 0.0
2017-Nov-15 12:30N 40°35' W 074°12'0 0.0
2017-Nov-15 12:00N 40°35' W 074°12'0 0.0
2017-Nov-15 11:30N 40°35' W 074°12'0 0.0
2017-Nov-15 11:00N 40°35' W 074°12'0 0.0
2017-Nov-15 10:30N 40°35' W 074°12'0 0.0
2017-Nov-15 10:00N 40°35' W 074°12'0 0.0
2017-Nov-15 09:30N 40°35' W 074°12'0 0.0
2017-Nov-15 09:00N 40°35' W 074°12'0 0.0
2017-Nov-15 08:30N 40°35' W 074°12'0 0.0
2017-Nov-15 08:00N 40°35' W 074°12'0 0.0
2017-Nov-15 07:30N 40°35' W 074°12'0 0.0
2017-Nov-15 07:00N 40°35' W 074°12'0 0.0
2017-Nov-15 06:30N 40°35' W 074°12'0 0.0
2017-Nov-15 05:57N 40°35' W 074°12'0 0.0
2017-Nov-15 05:30N 40°35' W 074°12'0 0.0
2017-Nov-15 05:00N 40°35' W 074°12'0 0.0
2017-Nov-15 04:30N 40°35' W 074°12'0 0.0
2017-Nov-15 04:00N 40°35' W 074°12'0 0.0
2017-Nov-15 03:30N 40°35' W 074°12'0 0.0
2017-Nov-15 03:00N 40°35' W 074°12'0 0.0
2017-Nov-15 02:30N 40°35' W 074°12'0 0.0
2017-Nov-15 02:00N 40°35' W 074°12'0 0.0
2017-Nov-15 01:30N 40°35' W 074°12'0 0.0
2017-Nov-15 01:00N 40°35' W 074°12'0 0.0
2017-Nov-15 00:30N 40°35' W 074°12'0 0.0
2017-Nov-15 00:00N 40°35' W 074°12'0 0.0
2017-Nov-14 23:30N 40°35' W 074°12'0 0.0
2017-Nov-14 23:00N 40°35' W 074°12'0 0.0
2017-Nov-14 22:30N 40°35' W 074°12'0 0.0
2017-Nov-14 22:00N 40°35' W 074°12'0 0.0
2017-Nov-14 21:30N 40°35' W 074°12'0 0.0
2017-Nov-14 20:51N 40°35' W 074°12'0 0.0
2017-Nov-14 20:30N 40°35' W 074°12'0 0.0
2017-Nov-14 20:00N 40°35' W 074°12'0 0.0
2017-Nov-14 19:30N 40°35' W 074°12'0 0.0
2017-Nov-14 18:57N 40°35' W 074°12'0 0.0
2017-Nov-14 18:30N 40°35' W 074°12'0 0.0
2017-Nov-14 17:57N 40°35' W 074°12'0 0.0
2017-Nov-14 17:30N 40°35' W 074°12'0 0.0
2017-Nov-14 17:00N 40°35' W 074°12'0 0.0
2017-Nov-14 16:27N 40°35' W 074°12'0 0.0
2017-Nov-14 16:00N 40°35' W 074°12'0 0.0
2017-Nov-14 15:27N 40°35' W 074°12'0 0.0
2017-Nov-14 15:00N 40°35' W 074°12'0 0.0
2017-Nov-14 14:24N 40°35' W 074°12'0 0.0
2017-Nov-14 13:57N 40°35' W 074°12'0 0.0
2017-Nov-14 13:30N 40°35' W 074°12'0 0.0
2017-Nov-14 13:00N 40°35' W 074°12'0 0.0
2017-Nov-14 12:30N 40°35' W 074°12'0 0.0
2017-Nov-14 12:00N 40°35' W 074°12'0 0.0
2017-Nov-14 11:30N 40°35' W 074°12'0 0.0
2017-Nov-14 11:00N 40°35' W 074°12'0 0.0
2017-Nov-14 10:21N 40°35' W 074°12'0 0.0
2017-Nov-14 10:00N 40°35' W 074°12'0 0.0
2017-Nov-14 09:30N 40°35' W 074°12'0 0.0
2017-Nov-14 09:00N 40°35' W 074°12'0 0.0
2017-Nov-14 08:30N 40°35' W 074°12'0 0.0
2017-Nov-14 08:00N 40°35' W 074°12'0 0.0
2017-Nov-14 07:30N 40°35' W 074°12'0 0.0
2017-Nov-14 07:00N 40°35' W 074°12'1 1.3
2017-Nov-14 06:30N 40°36' W 074°12'2 4.1
2017-Nov-14 06:01N 40°38' W 074°12'4 7.9
2017-Nov-14 05:30N 40°39' W 074°07'4 8.2
2017-Nov-14 05:01N 40°41' W 074°02'713.3
2017-Nov-14 04:30N 40°47' W 073°59'713.7
2017-Nov-14 04:00N 40°54' W 073°55'3 6.3
2017-Nov-14 03:29N 40°57' W 073°55'0 0.1
2017-Nov-14 03:00N 40°57' W 073°55'0 0.0
2017-Nov-14 02:24N 40°57' W 073°55'0 0.0
2017-Nov-14 01:48N 40°57' W 073°55'0 0.4
2017-Nov-14 01:27N 40°57' W 073°54'0 0.3
2017-Nov-14 00:54N 40°57' W 073°55'0 0.1
2017-Nov-14 00:30N 40°57' W 073°55'0 0.1
2017-Nov-13 23:48N 40°57' W 073°55'0 0.0
2017-Nov-13 23:30N 40°57' W 073°55'0 0.0
2017-Nov-13 22:42N 40°57' W 073°55'0 0.1
2017-Nov-13 22:27N 40°57' W 073°54'0 0.0
2017-Nov-13 22:00N 40°57' W 073°55'74 3.7
2017-Nov-13 02:00N 41°11' W 072°19'5 9.7
2017-Nov-13 01:30N 41°12' W 072°13'95 9.0
2017-Nov-12 14:58N 42°09' W 070°31'511.1
2017-Nov-12 14:30N 42°14' W 070°35'611.4
2017-Nov-12 14:00N 42°18' W 070°41'611.6
2017-Nov-12 13:30N 42°21' W 070°47'510.3
2017-Nov-12 13:00N 42°23' W 070°54'510.3
2017-Nov-12 12:30N 42°20' W 071°00'3 7.0
2017-Nov-12 12:00N 42°23' W 071°02'1 2.6
2017-Nov-12 11:30N 42°24' W 071°01'0 0.1
2017-Nov-12 11:00N 42°24' W 071°01'0 0.0
2017-Nov-12 10:15N 42°24' W 071°01'0 0.0
2017-Nov-12 10:00N 42°24' W 071°01'0 0.0
2017-Nov-12 09:27N 42°24' W 071°01'0 0.0
2017-Nov-12 09:00N 42°24' W 071°01'0 0.0
2017-Nov-12 08:24N 42°24' W 071°01'0 0.0
2017-Nov-12 08:00N 42°24' W 071°01'0 0.0
2017-Nov-12 07:30N 42°24' W 071°01'0 0.0
2017-Nov-12 06:57N 42°24' W 071°01'0 0.0
2017-Nov-12 06:30N 42°24' W 071°01'0 0.0
2017-Nov-12 05:57N 42°24' W 071°01'0 0.0
2017-Nov-12 05:18N 42°24' W 071°01'0 0.0
2017-Nov-12 04:57N 42°24' W 071°01'0 0.0
2017-Nov-12 04:30N 42°24' W 071°01'0 0.0
2017-Nov-12 03:57N 42°24' W 071°01'0 0.0
2017-Nov-12 03:27N 42°24' W 071°01'0 0.0
2017-Nov-12 03:00N 42°24' W 071°01'0 0.0
2017-Nov-12 02:30N 42°24' W 071°01'0 0.0
2017-Nov-12 01:57N 42°24' W 071°01'0 0.0
2017-Nov-12 01:30N 42°24' W 071°01'0 0.0
2017-Nov-12 00:54N 42°24' W 071°01'0 0.0
2017-Nov-12 00:30N 42°24' W 071°01'0 0.0
2017-Nov-12 00:00N 42°24' W 071°01'0 0.0
2017-Nov-11 23:27N 42°24' W 071°01'0 0.0
2017-Nov-11 23:00N 42°24' W 071°01'0 0.6
2017-Nov-11 22:30N 42°24' W 071°01'2 4.4
2017-Nov-11 22:00N 42°23' W 071°04'0 0.6
2017-Nov-11 21:30N 42°23' W 071°04'1 0.4
2017-Nov-11 19:14N 42°23' W 071°03'0 0.0
2017-Nov-11 17:26N 42°23' W 071°03'1 3.3
2017-Nov-11 17:00N 42°24' W 071°01'0 0.2
2017-Nov-11 15:43N 42°24' W 071°01'0 0.0
2017-Nov-11 15:19N 42°24' W 071°01'0 0.0
2017-Nov-11 14:58N 42°24' W 071°01'0 0.0
2017-Nov-11 13:13N 42°24' W 071°01'0 0.0
2017-Nov-11 12:55N 42°24' W 071°01'0 0.0
2017-Nov-11 12:25N 42°24' W 071°01'0 0.0
2017-Nov-11 11:58N 42°24' W 071°01'0 0.0
2017-Nov-11 10:55N 42°24' W 071°01'0 0.0
2017-Nov-11 10:16N 42°24' W 071°01'0 0.0
2017-Nov-11 09:46N 42°24' W 071°01'0 0.0
2017-Nov-11 09:28N 42°24' W 071°01'0 0.0
2017-Nov-11 08:55N 42°24' W 071°01'0 0.0
2017-Nov-11 08:30N 42°24' W 071°01'0 0.4
2017-Nov-11 08:00N 42°24' W 071°01'2 3.3
2017-Nov-11 07:30N 42°23' W 071°03'4 7.7
2017-Nov-11 07:00N 42°20' W 070°59'611.3
2017-Nov-11 06:30N 42°23' W 070°53'510.5
2017-Nov-11 06:00N 42°21' W 070°46'510.9
2017-Nov-11 05:30N 42°17' W 070°40'510.5
2017-Nov-11 05:00N 42°14' W 070°35'510.2
2017-Nov-11 04:30N 42°10' W 070°31'92 6.3
2017-Nov-10 13:51N 41°14' W 072°08'513.0
2017-Nov-10 13:30N 41°13' W 072°14'713.7
2017-Nov-10 13:00N 41°11' W 072°23'612.9
2017-Nov-10 12:30N 41°09' W 072°31'612.4
2017-Nov-10 12:00N 41°07' W 072°39'612.3
2017-Nov-10 11:30N 41°06' W 072°47'4511.4
2017-Nov-10 07:32N 40°52' W 073°44'011.5
2017-Nov-10 07:30N 40°52' W 073°45'5 9.4
2017-Nov-10 06:59N 40°48' W 073°49'510.7
2017-Nov-10 06:29N 40°47' W 073°56'511.0
2017-Nov-10 06:00N 40°42' W 073°60'5 9.7
2017-Nov-10 05:31N 40°38' W 074°03'0 1.0
2017-Nov-10 05:01N 40°39' W 074°03'3 5.6
2017-Nov-10 04:30N 40°39' W 074°07'2 4.3
2017-Nov-10 04:00N 40°39' W 074°10'3 5.2
2017-Nov-10 03:30N 40°37' W 074°12'2 3.6
2017-Nov-10 03:00N 40°35' W 074°13'0 0.0
2017-Nov-10 02:29N 40°35' W 074°13'0 0.0
2017-Nov-10 02:00N 40°35' W 074°13'0 0.0
2017-Nov-10 01:30N 40°35' W 074°13'0 0.0
2017-Nov-10 00:58N 40°35' W 074°13'0 0.0
2017-Nov-10 00:25N 40°35' W 074°13'0 0.0
2017-Nov-09 23:58N 40°35' W 074°13'0 0.0
2017-Nov-09 23:13N 40°35' W 074°13'0 0.0
2017-Nov-09 22:58N 40°35' W 074°13'0 0.0
2017-Nov-09 22:19N 40°35' W 074°13'0 0.0
2017-Nov-09 21:43N 40°35' W 074°13'0 0.0
2017-Nov-09 21:25N 40°35' W 074°13'0 0.0
2017-Nov-09 20:49N 40°35' W 074°13'0 0.0
2017-Nov-09 20:28N 40°35' W 074°13'0 0.0
2017-Nov-09 19:58N 40°35' W 074°13'0 0.0
2017-Nov-09 19:28N 40°35' W 074°13'0 0.0
2017-Nov-09 17:07N 40°35' W 074°13'0 0.0
2017-Nov-09 16:55N 40°35' W 074°13'0 0.0
2017-Nov-09 15:31N 40°35' W 074°13'0 0.0
2017-Nov-09 15:25N 40°35' W 074°13'0 0.0
2017-Nov-09 14:52N 40°35' W 074°13'0 0.0
2017-Nov-09 14:28N 40°35' W 074°13'0 0.0
2017-Nov-09 13:55N 40°35' W 074°13'0 0.0
2017-Nov-09 13:28N 40°35' W 074°13'0 0.0
2017-Nov-09 12:49N 40°35' W 074°13'  

Dump ship's entire track history